createdAt,value
2018-06-09T00:00:08.688Z,83
2018-06-09T00:01:08.361Z,82.8
2018-06-09T00:02:08.465Z,82.8
2018-06-09T00:03:08.429Z,83
2018-06-09T00:04:08.334Z,83
2018-06-09T00:05:08.461Z,83.28
2018-06-09T00:06:08.416Z,82.9
2018-06-09T00:07:08.355Z,82.7
2018-06-09T00:08:08.340Z,83.09
2018-06-09T00:09:08.366Z,82.9
2018-06-09T00:10:08.418Z,83.28
2018-06-09T00:11:08.376Z,83.28
2018-06-09T00:12:08.384Z,83.09
2018-06-09T00:13:08.365Z,83.09
2018-06-09T00:14:08.372Z,83.18
2018-06-09T00:15:08.400Z,82.9
2018-06-09T00:16:08.391Z,83.28
2018-06-09T00:17:08.437Z,83.03
2018-06-09T00:18:08.450Z,82.9
2018-06-09T00:19:08.400Z,83.28
2018-06-09T00:20:08.442Z,83.28
2018-06-09T00:21:08.452Z,83.28
2018-06-09T00:22:08.426Z,83.48
2018-06-09T00:23:08.437Z,83.09
2018-06-09T00:24:08.408Z,83
2018-06-09T00:25:08.415Z,83
2018-06-09T00:26:08.430Z,83
2018-06-09T00:27:08.410Z,83.09
2018-06-09T00:28:08.414Z,83.67
2018-06-09T00:29:08.395Z,83.09
2018-06-09T00:30:08.402Z,83.58
2018-06-09T00:31:08.398Z,83.38
2018-06-09T00:32:08.441Z,83.38
2018-06-09T00:33:08.441Z,83.48
2018-06-09T00:34:08.396Z,83.58
2018-06-09T00:35:09.355Z,83.48
2018-06-09T00:36:08.463Z,83.81
2018-06-09T00:37:08.542Z,83.62
2018-06-09T00:38:08.420Z,83.62
2018-06-09T00:39:08.507Z,83.48
2018-06-09T00:40:08.415Z,83.58
2018-06-09T00:41:08.429Z,83.58
2018-06-09T00:42:08.457Z,83.72
2018-06-09T00:43:08.449Z,83.42
2018-06-09T00:44:08.457Z,83.38
2018-06-09T00:45:08.449Z,83.72
2018-06-09T00:46:08.510Z,83.72
2018-06-09T00:47:08.440Z,84
2018-06-09T00:49:27.095Z,83.91
2018-06-09T00:50:27.086Z,83.96
2018-06-09T00:51:27.040Z,84.2
2018-06-09T00:52:27.075Z,83.77
2018-06-09T00:53:27.081Z,83.96
2018-06-09T00:54:27.089Z,83.91
2018-06-09T00:55:27.099Z,84
2018-06-09T00:56:27.054Z,84.1
2018-06-09T00:57:27.051Z,84.1
2018-06-09T00:58:27.084Z,84.2
2018-06-09T00:59:27.059Z,84
2018-06-09T01:00:27.083Z,84.1
2018-06-09T01:01:27.082Z,84
2018-06-09T01:02:27.085Z,84.1
2018-06-09T01:03:27.062Z,83.91
2018-06-09T01:04:27.049Z,84
2018-06-09T01:05:27.079Z,84
2018-06-09T01:06:27.106Z,84.1
2018-06-09T01:07:27.054Z,84.2
2018-06-09T01:08:27.072Z,84
2018-06-09T01:09:27.064Z,84.1
2018-06-09T01:10:27.062Z,84
2018-06-09T01:11:27.080Z,83.91
2018-06-09T01:12:27.074Z,83.72
2018-06-09T01:13:27.028Z,83.91
2018-06-09T01:14:27.072Z,83.91
2018-06-09T01:15:27.144Z,83.91
2018-06-09T01:16:27.092Z,83.91
2018-06-09T01:17:27.082Z,84.1
2018-06-09T01:18:27.090Z,83.81
2018-06-09T01:19:27.143Z,83.91
2018-06-09T01:20:27.048Z,83.91
2018-06-09T01:21:27.135Z,84.2
2018-06-09T01:22:27.087Z,83.91
2018-06-09T01:23:27.098Z,84
2018-06-09T01:24:27.155Z,84.1
2018-06-09T01:25:27.132Z,84
2018-06-09T01:26:27.117Z,84
2018-06-09T01:27:27.128Z,83.72
2018-06-09T01:28:27.153Z,83.91
2018-06-09T01:29:27.107Z,83.91
2018-06-09T01:30:27.161Z,84.2
2018-06-09T01:31:27.181Z,84.3
2018-06-09T01:32:27.137Z,83.91
2018-06-09T01:33:27.113Z,83.91
2018-06-09T01:34:27.163Z,84.2
2018-06-09T01:35:27.105Z,84
2018-06-09T01:36:27.079Z,84
2018-06-09T01:37:27.110Z,83.81
2018-06-09T01:38:27.138Z,84.06
2018-06-09T01:39:27.169Z,84
2018-06-09T01:40:27.136Z,84
2018-06-09T01:41:27.187Z,84
2018-06-09T01:42:27.175Z,83.81
2018-06-09T01:43:27.126Z,84
2018-06-09T01:44:27.210Z,84.1
2018-06-09T01:45:27.143Z,83.96
2018-06-09T01:46:27.224Z,84.1
2018-06-09T01:47:27.121Z,84.1
2018-06-09T01:48:27.179Z,83.91
2018-06-09T01:49:27.158Z,84.1
2018-06-09T01:50:27.166Z,84.2
2018-06-09T01:51:27.121Z,83.62
2018-06-09T01:52:27.180Z,84
2018-06-09T01:53:27.187Z,83.91
2018-06-09T01:54:27.137Z,84.1
2018-06-09T01:55:27.145Z,83.91
2018-06-09T01:56:27.151Z,83.91
2018-06-09T01:57:27.187Z,83.91
2018-06-09T01:58:27.189Z,83.91
2018-06-09T01:59:27.120Z,84
2018-06-09T02:00:27.148Z,83.91
2018-06-09T02:01:27.188Z,84.1
2018-06-09T02:02:27.164Z,84.2
2018-06-09T02:03:27.171Z,84
2018-06-09T02:04:27.192Z,84
2018-06-09T02:05:27.757Z,83.77
2018-06-09T02:06:27.147Z,83.91
2018-06-09T02:07:27.171Z,83.86
2018-06-09T02:08:27.157Z,83.72
2018-06-09T02:09:27.210Z,83.42
2018-06-09T02:10:27.150Z,83.52
2018-06-09T02:11:27.175Z,83.81
2018-06-09T02:12:27.176Z,84.1
2018-06-09T02:13:27.169Z,83.62
2018-06-09T02:14:27.179Z,83.62
2018-06-09T02:15:27.196Z,83.91
2018-06-09T02:16:27.241Z,83.91
2018-06-09T02:17:27.253Z,83.42
2018-06-09T02:18:27.173Z,83.91
2018-06-09T02:19:27.172Z,83.33
2018-06-09T02:20:27.179Z,83.42
2018-06-09T02:21:27.210Z,83.91
2018-06-09T02:22:27.193Z,83.91
2018-06-09T02:23:27.175Z,83.28
2018-06-09T02:24:27.170Z,84
2018-06-09T02:25:27.198Z,83.86
2018-06-09T02:26:27.248Z,83.81
2018-06-09T02:27:27.199Z,83.52
2018-06-09T02:28:27.227Z,83.52
2018-06-09T02:29:27.240Z,83.58
2018-06-09T02:30:27.251Z,83.52
2018-06-09T02:31:27.176Z,83.42
2018-06-09T02:32:27.261Z,83.52
2018-06-09T02:33:27.193Z,83.81
2018-06-09T02:34:27.220Z,83.42
2018-06-09T02:35:27.206Z,83.62
2018-06-09T02:36:27.212Z,83.52
2018-06-09T02:37:27.219Z,83.81
2018-06-09T02:38:27.227Z,83.38
2018-06-09T02:39:27.257Z,83.42
2018-06-09T02:40:27.238Z,84.1
2018-06-09T02:41:27.317Z,84.1
2018-06-09T02:42:27.225Z,83.42
2018-06-09T02:43:27.237Z,83.96
2018-06-09T02:44:27.291Z,83.72
2018-06-09T02:45:27.253Z,84
2018-06-09T02:46:27.251Z,83.96
2018-06-09T02:47:27.312Z,83.52
2018-06-09T02:48:27.240Z,83.86
2018-06-09T02:49:27.280Z,83.72
2018-06-09T02:50:27.282Z,83.52
2018-06-09T02:51:27.234Z,83.38
2018-06-09T02:52:27.259Z,83.62
2018-06-09T02:53:27.240Z,83.72
2018-06-09T02:54:27.276Z,83.58
2018-06-09T02:55:27.267Z,83.77
2018-06-09T02:56:27.241Z,83.96
2018-06-09T02:57:27.319Z,83.96
2018-06-09T02:58:27.245Z,84
2018-06-09T02:59:27.256Z,84
2018-06-09T03:00:27.245Z,83.81
2018-06-09T03:01:27.301Z,84.2
2018-06-09T03:02:27.247Z,84.39
2018-06-09T03:03:27.332Z,84.39
2018-06-09T03:04:27.272Z,84.68
2018-06-09T03:05:27.280Z,84.2
2018-06-09T03:06:27.285Z,84.16
2018-06-09T03:07:27.284Z,84.68
2018-06-09T03:08:27.264Z,84.3
2018-06-09T03:09:27.305Z,84.68
2018-06-09T03:10:27.327Z,84.3
2018-06-09T03:11:27.310Z,84.49
2018-06-09T03:12:27.270Z,84.78
2018-06-09T03:13:27.298Z,84.35
2018-06-09T03:14:27.324Z,84.49
2018-06-09T03:15:27.286Z,84.74
2018-06-09T03:16:27.344Z,84.49
2018-06-09T03:17:27.269Z,84.45
2018-06-09T03:18:27.311Z,84.68
2018-06-09T03:19:27.315Z,84.68
2018-06-09T03:20:27.339Z,84.49
2018-06-09T03:21:27.298Z,84.64
2018-06-09T03:22:27.336Z,84.49
2018-06-09T03:23:27.294Z,84.49
2018-06-09T03:24:27.300Z,84.49
2018-06-09T03:25:27.300Z,84.35
2018-06-09T03:26:27.288Z,84.74
2018-06-09T03:27:27.308Z,84.55
2018-06-09T03:28:27.286Z,84.49
2018-06-09T03:29:27.329Z,84.55
2018-06-09T03:30:27.303Z,84.68
2018-06-09T03:31:27.310Z,84.55
2018-06-09T03:32:27.323Z,84.78
2018-06-09T03:33:27.322Z,84.45
2018-06-09T03:35:46.156Z,84.35
2018-06-09T03:36:45.980Z,84.45
2018-06-09T03:37:45.983Z,84.64
2018-06-09T03:38:45.950Z,84.58
2018-06-09T03:39:45.983Z,84.49
2018-06-09T03:40:46.016Z,84.64
2018-06-09T03:41:46.006Z,84.25
2018-06-09T03:42:46.047Z,84.58
2018-06-09T03:43:46.039Z,84.3
2018-06-09T03:44:45.989Z,84.45
2018-06-09T03:45:46.051Z,84.35
2018-06-09T03:46:46.019Z,84.2
2018-06-09T03:47:46.034Z,84.16
2018-06-09T03:48:45.988Z,84.25
2018-06-09T03:49:45.998Z,84.45
2018-06-09T03:50:46.016Z,84.35
2018-06-09T03:51:45.980Z,84.45
2018-06-09T03:52:45.993Z,84.39
2018-06-09T03:53:46.011Z,84.45
2018-06-09T03:54:46.003Z,84.25
2018-06-09T03:55:46.008Z,84.35
2018-06-09T03:56:46.033Z,84.45
2018-06-09T03:57:45.990Z,84.35
2018-06-09T03:58:46.015Z,84.16
2018-06-09T03:59:46.023Z,84.45
2018-06-09T04:00:46.016Z,84.45
2018-06-09T04:01:46.022Z,84.3
2018-06-09T04:02:46.077Z,84.35
2018-06-09T04:03:46.007Z,84.35
2018-06-09T04:04:46.006Z,84.25
2018-06-09T04:05:46.050Z,84.25
2018-06-09T04:06:46.025Z,84.16
2018-06-09T04:07:46.038Z,84.25
2018-06-09T04:08:46.102Z,84.49
2018-06-09T04:09:46.120Z,84.39
2018-06-09T04:10:46.016Z,84.35
2018-06-09T04:11:46.093Z,84.45
2018-06-09T04:12:46.088Z,84.35
2018-06-09T04:13:46.016Z,84.35
2018-06-09T04:14:46.049Z,84.39
2018-06-09T04:15:46.010Z,84.3
2018-06-09T04:16:46.021Z,84.49
2018-06-09T04:17:46.075Z,84.3
2018-06-09T04:18:46.083Z,84.39
2018-06-09T04:19:46.081Z,84.2
2018-06-09T04:20:46.101Z,84.39
2018-06-09T04:21:46.060Z,84.16
2018-06-09T04:22:46.128Z,84.35
2018-06-09T04:23:46.106Z,84.35
2018-06-09T04:24:46.060Z,84.2
2018-06-09T04:25:46.070Z,84.45
2018-06-09T04:26:46.047Z,83.86
2018-06-09T04:27:46.059Z,83.91
2018-06-09T04:28:46.116Z,83.86
2018-06-09T04:29:46.076Z,84.35
2018-06-09T04:30:46.155Z,83.81
2018-06-09T04:31:46.083Z,84
2018-06-09T04:32:46.064Z,84.06
2018-06-09T04:33:46.076Z,84
2018-06-09T04:34:46.100Z,84.06
2018-06-09T04:35:46.079Z,84.2
2018-06-09T04:36:46.093Z,83.96
2018-06-09T04:37:46.069Z,83.96
2018-06-09T04:38:46.071Z,83.67
2018-06-09T04:39:46.122Z,83.96
2018-06-09T04:40:46.093Z,83.77
2018-06-09T04:41:46.070Z,84.2
2018-06-09T04:42:46.086Z,84.16
2018-06-09T04:43:46.165Z,84.35
2018-06-09T04:44:46.113Z,84.25
2018-06-09T04:45:46.128Z,84.25
2018-06-09T04:46:46.162Z,84.25
2018-06-09T04:47:46.068Z,84.1
2018-06-09T04:48:46.161Z,84.25
2018-06-09T04:49:46.129Z,84.25
2018-06-09T04:50:46.133Z,83.86
2018-06-09T04:51:46.120Z,83.77
2018-06-09T04:52:46.137Z,84.35
2018-06-09T04:53:46.151Z,84.2
2018-06-09T04:54:46.126Z,84.06
2018-06-09T04:55:46.143Z,84.3
2018-06-09T04:56:46.175Z,84
2018-06-09T04:57:46.262Z,83.86
2018-06-09T04:58:46.186Z,84.16
2018-06-09T04:59:46.156Z,83.91
2018-06-09T05:00:46.146Z,84.25
2018-06-09T05:01:46.127Z,83.81
2018-06-09T05:02:46.827Z,84.3
2018-06-09T05:03:46.175Z,84.35
2018-06-09T05:04:46.141Z,83.96
2018-06-09T05:05:46.183Z,83.91
2018-06-09T05:06:46.197Z,84.16
2018-06-09T05:07:46.169Z,83.91
2018-06-09T05:08:46.149Z,84.25
2018-06-09T05:09:46.208Z,83.81
2018-06-09T05:10:46.156Z,84.25
2018-06-09T05:11:46.147Z,84.3
2018-06-09T05:12:46.181Z,84.35
2018-06-09T05:13:46.171Z,84.35
2018-06-09T05:14:46.154Z,84.1
2018-06-09T05:15:46.215Z,84.39
2018-06-09T05:16:46.140Z,84.3
2018-06-09T05:17:46.237Z,84.06
2018-06-09T05:18:46.168Z,84
2018-06-09T05:19:46.190Z,83.91
2018-06-09T05:20:46.174Z,83.81
2018-06-09T05:21:46.152Z,84.39
2018-06-09T05:22:46.194Z,83.86
2018-06-09T05:23:46.179Z,84.3
2018-06-09T05:24:46.198Z,84.35
2018-06-09T05:25:46.312Z,84.39
2018-06-09T05:26:46.206Z,84.39
2018-06-09T05:27:46.239Z,84.2
2018-06-09T05:28:46.212Z,84.39
2018-06-09T05:29:46.230Z,84.3
2018-06-09T05:30:46.235Z,84.39
2018-06-09T05:31:46.242Z,84.64
2018-06-09T05:32:46.266Z,84.45
2018-06-09T05:33:46.253Z,84.39
2018-06-09T05:34:46.213Z,84.35
2018-06-09T05:35:46.241Z,84.35
2018-06-09T05:36:46.228Z,84.49
2018-06-09T05:37:46.249Z,84.39
2018-06-09T05:38:46.304Z,84.3
2018-06-09T05:39:46.326Z,84.2
2018-06-09T05:40:46.350Z,84.16
2018-06-09T05:41:46.262Z,84.16
2018-06-09T05:42:46.233Z,84.58
2018-06-09T05:43:46.220Z,84.3
2018-06-09T05:44:46.248Z,84.49
2018-06-09T05:46:02.435Z,84.45
2018-06-09T05:47:02.476Z,84.49
2018-06-09T05:48:02.374Z,84.35
2018-06-09T05:49:02.374Z,84.3
2018-06-09T05:50:02.413Z,84.55
2018-06-09T05:51:02.372Z,84.49
2018-06-09T05:52:02.475Z,84.45
2018-06-09T05:53:02.376Z,84.45
2018-06-09T05:54:02.438Z,84.35
2018-06-09T05:55:02.428Z,84.68
2018-06-09T05:56:02.456Z,84.49
2018-06-09T05:57:02.464Z,84.49
2018-06-09T05:58:02.412Z,84.68
2018-06-09T05:59:02.390Z,84.35
2018-06-09T06:00:02.402Z,84.64
2018-06-09T06:01:02.415Z,84.55
2018-06-09T06:02:02.437Z,84.68
2018-06-09T06:03:02.459Z,84.64
2018-06-09T06:04:02.515Z,84.39
2018-06-09T06:05:02.447Z,84.49
2018-06-09T06:06:02.497Z,84.39
2018-06-09T06:07:02.477Z,84.39
2018-06-09T06:08:02.477Z,84.58
2018-06-09T06:09:02.440Z,84.49
2018-06-09T06:10:02.386Z,84.3
2018-06-09T06:11:02.447Z,84.45
2018-06-09T06:12:03.444Z,84.35
2018-06-09T06:13:02.458Z,84.97
2018-06-09T06:14:02.488Z,84.58
2018-06-09T06:15:02.463Z,84.49
2018-06-09T06:16:02.496Z,84.45
2018-06-09T06:17:02.416Z,84.49
2018-06-09T06:18:02.460Z,84.58
2018-06-09T06:19:02.478Z,84.39
2018-06-09T06:20:02.477Z,84.58
2018-06-09T06:21:02.437Z,84.58
2018-06-09T06:22:02.488Z,84.39
2018-06-09T06:23:02.499Z,84.68
2018-06-09T06:24:02.460Z,84.74
2018-06-09T06:25:02.462Z,84.49
2018-06-09T06:26:02.474Z,84.68
2018-06-09T06:27:02.507Z,84.68
2018-06-09T06:28:02.486Z,84.68
2018-06-09T06:29:02.464Z,84.49
2018-06-09T06:30:02.513Z,84.68
2018-06-09T06:31:02.510Z,84.58
2018-06-09T06:32:02.644Z,84.49
2018-06-09T06:33:02.508Z,84.49
2018-06-09T06:34:12.529Z,84.49
2018-06-09T06:35:02.547Z,84.68
2018-06-09T06:36:02.511Z,84.49
2018-06-09T06:37:02.518Z,84.78
2018-06-09T06:38:02.468Z,84.68
2018-06-09T06:39:02.470Z,84.58
2018-06-09T06:40:02.454Z,84.49
2018-06-09T06:41:02.526Z,84.49
2018-06-09T06:42:02.549Z,84.68
2018-06-09T06:43:02.526Z,84.78
2018-06-09T06:44:02.558Z,84.58
2018-06-09T06:45:02.633Z,84.3
2018-06-09T06:46:02.520Z,84.68
2018-06-09T06:47:02.517Z,84.88
2018-06-09T06:48:02.532Z,84.68
2018-06-09T06:49:02.507Z,84.78
2018-06-09T06:50:02.539Z,84.2
2018-06-09T06:51:02.509Z,84.2
2018-06-09T06:52:02.564Z,84.68
2018-06-09T06:53:02.567Z,84.68
2018-06-09T06:54:02.603Z,84.55
2018-06-09T06:55:02.530Z,84.49
2018-06-09T06:56:02.553Z,84.49
2018-06-09T06:57:02.548Z,84.35
2018-06-09T06:58:02.552Z,84.78
2018-06-09T06:59:02.568Z,84.3
2018-06-09T07:00:02.544Z,84.78
2018-06-09T07:01:02.550Z,84.58
2018-06-09T07:02:02.615Z,84.58
2018-06-09T07:03:02.581Z,84.68
2018-06-09T07:04:02.590Z,84.78
2018-06-09T07:05:02.589Z,84.78
2018-06-09T07:06:02.586Z,84.68
2018-06-09T07:07:02.547Z,84.68
2018-06-09T07:08:02.607Z,84.68
2018-06-09T07:09:02.550Z,84.68
2018-06-09T07:10:02.643Z,84.58
2018-06-09T07:11:02.603Z,84.3
2018-06-09T07:12:02.619Z,84.68
2018-06-09T07:13:02.563Z,84.78
2018-06-09T07:14:02.559Z,84.78
2018-06-09T07:15:02.637Z,84.68
2018-06-09T07:16:02.558Z,84.88
2018-06-09T07:17:02.574Z,84.68
2018-06-09T07:18:02.569Z,84.68
2018-06-09T07:22:31.897Z,84.49
2018-06-09T07:23:31.833Z,84.39
2018-06-09T07:24:31.817Z,84.49
2018-06-09T07:25:31.853Z,84.49
2018-06-09T07:26:31.838Z,84.68
2018-06-09T07:27:31.945Z,84.78
2018-06-09T07:28:31.841Z,84.49
2018-06-09T07:29:31.839Z,84.39
2018-06-09T07:30:31.803Z,84.49
2018-06-09T07:31:31.814Z,84.39
2018-06-09T07:32:31.897Z,84.68
2018-06-09T07:33:31.825Z,84.49
2018-06-09T07:34:31.830Z,84.68
2018-06-09T07:35:31.879Z,84.58
2018-06-09T07:36:31.874Z,84.39
2018-06-09T07:37:31.903Z,84.49
2018-06-09T07:38:31.861Z,84.68
2018-06-09T07:39:31.868Z,84.1
2018-06-09T07:40:31.869Z,84.2
2018-06-09T07:41:31.877Z,84.88
2018-06-09T07:42:31.911Z,84.58
2018-06-09T07:43:31.894Z,84.49
2018-06-09T07:44:31.870Z,84.49
2018-06-09T07:45:31.907Z,84.39
2018-06-09T07:46:31.857Z,84.58
2018-06-09T07:47:32.377Z,84.39
2018-06-09T07:48:31.923Z,84.3
2018-06-09T07:49:31.898Z,83.81
2018-06-09T07:51:50.635Z,83.62
2018-06-09T07:52:51.154Z,83.42
2018-06-09T07:53:50.630Z,83.33
2018-06-09T07:54:50.651Z,83.62
2018-06-09T07:55:50.667Z,83.13
2018-06-09T07:56:50.640Z,82.94
2018-06-09T07:57:50.691Z,83.03
2018-06-09T07:58:50.740Z,82.84
2018-06-09T07:59:50.663Z,82.75
2018-06-09T08:00:50.663Z,82.84
2018-06-09T08:01:50.648Z,82.45
2018-06-09T08:02:51.038Z,82.75
2018-06-09T08:03:50.623Z,82.26
2018-06-09T08:04:50.627Z,82.75
2018-06-09T08:05:50.688Z,82.55
2018-06-09T08:06:50.725Z,82.55
2018-06-09T08:07:50.658Z,82.55
2018-06-09T08:08:50.652Z,82.35
2018-06-09T08:09:50.617Z,82.45
2018-06-09T08:10:50.660Z,82.45
2018-06-09T08:11:50.636Z,82.45
2018-06-09T08:12:50.624Z,82.45
2018-06-09T08:13:50.695Z,82.17
2018-06-09T08:14:50.638Z,82.55
2018-06-09T08:15:50.665Z,82.65
2018-06-09T08:16:50.663Z,82.45
2018-06-09T08:17:50.651Z,82.55
2018-06-09T08:18:50.634Z,82.65
2018-06-09T08:19:50.707Z,81.97
2018-06-09T08:20:50.741Z,82.45
2018-06-09T08:21:50.667Z,81.77
2018-06-09T08:22:50.699Z,82.65
2018-06-09T08:23:50.658Z,82.35
2018-06-09T08:24:50.666Z,82.26
2018-06-09T08:25:50.727Z,81.97
2018-06-09T08:26:50.687Z,82.55
2018-06-09T08:27:50.692Z,81.91
2018-06-09T08:28:50.750Z,81.77
2018-06-09T08:29:50.734Z,82.55
2018-06-09T08:30:50.697Z,81.97
2018-06-09T08:31:50.719Z,82.17
2018-06-09T08:32:50.730Z,82.17
2018-06-09T08:33:50.722Z,82.07
2018-06-09T08:34:50.712Z,82.17
2018-06-09T08:35:50.718Z,82.26
2018-06-09T08:36:50.690Z,81.97
2018-06-09T08:37:50.697Z,82.07
2018-06-09T08:38:50.711Z,82.07
2018-06-09T08:39:50.766Z,81.77
2018-06-09T08:40:50.693Z,81.97
2018-06-09T08:41:50.734Z,81.77
2018-06-09T08:42:50.730Z,82.17
2018-06-09T08:43:50.710Z,82.35
2018-06-09T08:44:50.731Z,81.87
2018-06-09T08:45:50.824Z,81.77
2018-06-09T08:46:50.811Z,82.17
2018-06-09T08:47:50.763Z,82.35
2018-06-09T08:48:50.727Z,82.17
2018-06-09T08:49:50.738Z,82.26
2018-06-09T08:50:50.763Z,82.07
2018-06-09T08:51:50.822Z,82.17
2018-06-09T08:52:50.791Z,82.17
2018-06-09T08:53:50.740Z,82.26
2018-06-09T08:54:50.737Z,82.26
2018-06-09T08:55:50.722Z,82.26
2018-06-09T08:56:50.815Z,81.97
2018-06-09T08:57:50.715Z,82.26
2018-06-09T08:58:50.709Z,82.26
2018-06-09T08:59:50.748Z,82.17
2018-06-09T09:00:50.754Z,81.97
2018-06-09T09:01:50.761Z,82.07
2018-06-09T09:02:50.738Z,82.07
2018-06-09T09:03:50.737Z,82.17
2018-06-09T09:04:50.755Z,82.07
2018-06-09T09:05:50.793Z,82.17
2018-06-09T09:06:50.741Z,82.07
2018-06-09T09:07:50.752Z,82.07
2018-06-09T09:08:50.820Z,82.07
2018-06-09T09:09:50.777Z,82.26
2018-06-09T09:10:50.843Z,82.07
2018-06-09T09:11:50.772Z,82.35
2018-06-09T09:12:51.706Z,82.07
2018-06-09T09:13:50.784Z,82.07
2018-06-09T09:18:19.612Z,82.17
2018-06-09T09:19:19.642Z,82.07
2018-06-09T09:20:19.623Z,82.17
2018-06-09T09:21:19.622Z,82.07
2018-06-09T09:22:19.554Z,82.07
2018-06-09T09:23:19.568Z,82.26
2018-06-09T09:24:19.573Z,82.07
2018-06-09T09:25:19.613Z,82.07
2018-06-09T09:26:19.589Z,82.35
2018-06-09T09:27:19.609Z,82.12
2018-06-09T09:28:19.565Z,82.07
2018-06-09T09:29:19.596Z,81.97
2018-06-09T09:30:19.615Z,82.07
2018-06-09T09:31:19.624Z,82.35
2018-06-09T09:32:19.644Z,82.17
2018-06-09T09:33:19.601Z,82.07
2018-06-09T09:34:19.629Z,82.07
2018-06-09T09:35:19.621Z,82.07
2018-06-09T09:36:19.605Z,82.35
2018-06-09T09:37:19.591Z,82.26
2018-06-09T09:41:47.682Z,82.26
2018-06-09T09:42:47.653Z,82.26
2018-06-09T09:43:47.674Z,82.17
2018-06-09T09:44:47.682Z,82.17
2018-06-09T09:45:47.658Z,82.35
2018-06-09T09:46:47.677Z,82.07
2018-06-09T09:47:47.702Z,81.97
2018-06-09T09:48:47.704Z,82.17
2018-06-09T09:49:47.750Z,82.17
2018-06-09T09:50:47.670Z,82.26
2018-06-09T09:51:47.697Z,81.97
2018-06-09T09:52:47.702Z,82.17
2018-06-09T09:53:47.716Z,81.97
2018-06-09T09:54:47.694Z,82.17
2018-06-09T09:57:06.360Z,82.17
2018-06-09T09:58:06.336Z,82.17
2018-06-09T09:59:06.366Z,82.26
2018-06-09T10:00:06.312Z,82.32
2018-06-09T10:01:06.297Z,82.17
2018-06-09T10:02:06.301Z,82.35
2018-06-09T10:03:06.312Z,81.68
2018-06-09T10:04:06.984Z,81.77
2018-06-09T10:05:06.309Z,82.55
2018-06-09T10:06:06.305Z,82.17
2018-06-09T10:07:06.352Z,82.35
2018-06-09T10:08:06.330Z,82.84
2018-06-09T10:09:06.365Z,82.84
2018-06-09T10:10:06.355Z,82.65
2018-06-09T10:11:06.318Z,82.55
2018-06-09T10:12:06.321Z,82.45
2018-06-09T10:13:06.347Z,82.75
2018-06-09T10:14:06.279Z,82.65
2018-06-09T10:15:06.340Z,82.65
2018-06-09T10:16:06.329Z,82.75
2018-06-09T10:17:06.294Z,82.75
2018-06-09T10:18:06.334Z,82.35
2018-06-09T10:19:06.338Z,82.75
2018-06-09T10:20:06.319Z,82.55
2018-06-09T10:21:06.337Z,82.55
2018-06-09T10:22:06.318Z,82.65
2018-06-09T10:23:06.356Z,82.45
2018-06-09T10:24:06.371Z,82.35
2018-06-09T10:25:06.364Z,82.07
2018-06-09T10:26:06.337Z,82.35
2018-06-09T10:27:06.340Z,82.45
2018-06-09T10:28:06.328Z,82.45
2018-06-09T10:29:06.362Z,82.45
2018-06-09T10:30:06.313Z,82.45
2018-06-09T10:31:06.316Z,82.55
2018-06-09T10:32:06.325Z,82.55
2018-06-09T10:33:06.355Z,82.65
2018-06-09T10:34:06.356Z,82.55
2018-06-09T10:35:06.370Z,82.65
2018-06-09T10:36:07.044Z,82.45
2018-06-09T10:37:06.403Z,82.26
2018-06-09T10:38:06.358Z,82.26
2018-06-09T10:39:06.373Z,82.45
2018-06-09T10:40:06.355Z,82.55
2018-06-09T10:41:06.372Z,82.07
2018-06-09T10:42:06.390Z,82.65
2018-06-09T10:43:06.396Z,82.55
2018-06-09T10:44:06.353Z,82.55
2018-06-09T10:45:06.386Z,82.65
2018-06-09T10:46:06.382Z,82.55
2018-06-09T10:47:06.390Z,82.65
2018-06-09T10:48:06.381Z,81.77
2018-06-09T10:49:06.356Z,82.55
2018-06-09T10:50:06.387Z,82.65
2018-06-09T10:51:08.619Z,82.55
2018-06-09T10:52:06.374Z,82.65
2018-06-09T10:53:06.381Z,82.55
2018-06-09T10:54:06.369Z,82.65
2018-06-09T10:55:06.368Z,82.26
2018-06-09T10:56:06.390Z,81.87
2018-06-09T10:57:06.406Z,81.97
2018-06-09T10:58:06.379Z,82.65
2018-06-09T10:59:06.443Z,82.07
2018-06-09T11:00:06.420Z,81.97
2018-06-09T11:01:06.402Z,81.87
2018-06-09T11:02:06.390Z,81.97
2018-06-09T11:03:06.395Z,81.87
2018-06-09T11:04:06.415Z,81.87
2018-06-09T11:05:06.421Z,81.97
2018-06-09T11:06:06.391Z,81.87
2018-06-09T11:07:06.394Z,81.87
2018-06-09T11:08:06.434Z,81.97
2018-06-09T11:09:06.436Z,82.17
2018-06-09T11:10:06.458Z,82.07
2018-06-09T11:11:06.420Z,82.07
2018-06-09T11:12:06.732Z,81.97
2018-06-09T11:13:06.466Z,81.97
2018-06-09T11:14:06.423Z,82.35
2018-06-09T11:15:06.397Z,82.26
2018-06-09T11:16:06.410Z,82.26
2018-06-09T11:17:06.423Z,82.26
2018-06-09T11:18:06.449Z,82.26
2018-06-09T11:19:06.406Z,82.26
2018-06-09T11:20:06.382Z,82.17
2018-06-09T11:21:06.435Z,82.17
2018-06-09T11:22:06.447Z,82.17
2018-06-09T11:23:06.433Z,81.97
2018-06-09T11:24:06.533Z,81.77
2018-06-09T11:25:06.406Z,82.17
2018-06-09T11:26:06.454Z,82.17
2018-06-09T11:27:06.472Z,82.07
2018-06-09T11:28:06.457Z,81.77
2018-06-09T11:29:06.441Z,81.97
2018-06-09T11:30:06.420Z,82.07
2018-06-09T11:31:06.453Z,82.17
2018-06-09T11:32:06.466Z,82.07
2018-06-09T11:33:06.487Z,82.07
2018-06-09T11:34:06.471Z,81.87
2018-06-09T11:35:06.463Z,81.87
2018-06-09T11:36:06.485Z,81.87
2018-06-09T11:37:06.471Z,81.97
2018-06-09T11:38:06.468Z,81.97
2018-06-09T11:39:06.449Z,81.87
2018-06-09T11:44:24.070Z,81.97
2018-06-09T11:44:35.568Z,81.87
2018-06-09T11:45:35.543Z,81.68
2018-06-09T11:46:35.549Z,81.68
2018-06-09T11:47:35.602Z,81.97
2018-06-09T11:48:35.510Z,81.58
2018-06-09T11:49:35.530Z,81.68
2018-06-09T11:50:35.578Z,82.07
2018-06-09T11:51:35.643Z,81.97
2018-06-09T11:52:35.594Z,81.97
2018-06-09T11:53:35.731Z,82.07
2018-06-09T11:54:35.609Z,81.77
2018-06-09T11:59:04.794Z,82.07
2018-06-09T12:00:04.740Z,81.87
2018-06-09T12:01:04.600Z,81.97
2018-06-09T12:02:04.611Z,81.97
2018-06-09T12:03:04.580Z,81.77
2018-06-09T12:04:04.595Z,81.77
2018-06-09T12:05:04.647Z,81.77
2018-06-09T12:06:04.573Z,81.77
2018-06-09T12:07:04.647Z,81.68
2018-06-09T12:08:04.612Z,81.68
2018-06-09T12:09:04.552Z,81.68
2018-06-09T12:10:04.585Z,81.58
2018-06-09T12:11:04.591Z,81.77
2018-06-09T12:12:04.540Z,81.77
2018-06-09T12:13:04.557Z,81.77
2018-06-09T12:14:04.624Z,81.77
2018-06-09T12:15:04.570Z,81.77
2018-06-09T12:16:04.565Z,81.68
2018-06-09T12:17:04.544Z,81.87
2018-06-09T12:18:04.584Z,81.68
2018-06-09T12:19:04.558Z,81.77
2018-06-09T12:20:04.688Z,81.77
2018-06-09T12:21:04.652Z,81.77
2018-06-09T12:22:04.561Z,81.77
2018-06-09T12:23:04.714Z,81.87
2018-06-09T12:24:04.665Z,81.87
2018-06-09T12:25:04.721Z,81.87
2018-06-09T12:26:04.645Z,81.77
2018-06-09T12:27:04.621Z,81.87
2018-06-09T12:28:04.594Z,81.87
2018-06-09T12:29:04.606Z,81.77
2018-06-09T12:30:04.626Z,81.68
2018-06-09T12:31:04.610Z,81.77
2018-06-09T12:32:04.619Z,81.68
2018-06-09T12:33:04.712Z,81.39
2018-06-09T12:34:04.632Z,81.77
2018-06-09T12:35:04.689Z,81.87
2018-06-09T12:36:04.654Z,81.39
2018-06-09T12:37:04.672Z,81.87
2018-06-09T12:38:04.630Z,81.77
2018-06-09T12:39:04.647Z,81.39
2018-06-09T12:40:04.668Z,81.48
2018-06-09T12:41:04.662Z,81.48
2018-06-09T12:42:04.628Z,81.48
2018-06-09T12:43:04.666Z,81.68
2018-06-09T12:44:04.631Z,81.39
2018-06-09T12:45:04.639Z,81.39
2018-06-09T12:46:04.645Z,81.58
2018-06-09T12:47:04.686Z,81.68
2018-06-09T12:48:04.695Z,81.58
2018-06-09T12:49:04.631Z,81.48
2018-06-09T12:50:04.636Z,81.29
2018-06-09T12:51:04.769Z,81.58
2018-06-09T12:52:04.788Z,81.68
2018-06-09T12:53:04.574Z,81.29
2018-06-09T12:54:04.602Z,81.29
2018-06-09T12:55:04.611Z,81.58
2018-06-09T12:56:04.626Z,81.58
2018-06-09T12:57:04.626Z,81.39
2018-06-09T12:58:04.578Z,81.39
2018-06-09T12:59:04.607Z,81.29
2018-06-09T13:00:04.641Z,81.29
2018-06-09T13:01:04.595Z,81.29
2018-06-09T13:02:04.629Z,81.29
2018-06-09T13:03:04.696Z,81.2
2018-06-09T13:04:04.641Z,81.39
2018-06-09T13:05:04.664Z,81.68
2018-06-09T13:06:04.631Z,81.29
2018-06-09T13:07:04.659Z,81.48
2018-06-09T13:08:04.641Z,81.29
2018-06-09T13:09:05.163Z,81.29
2018-06-09T13:10:04.641Z,81.29
2018-06-09T13:11:04.608Z,81.39
2018-06-09T13:12:04.616Z,81.29
2018-06-09T13:13:04.622Z,81.48
2018-06-09T13:14:04.792Z,81.29
2018-06-09T13:15:04.728Z,81.29
2018-06-09T13:16:04.709Z,81.29
2018-06-09T13:17:04.753Z,81.29
2018-06-09T13:18:04.699Z,81.39
2018-06-09T13:19:04.693Z,81.58
2018-06-09T13:20:04.714Z,81.39
2018-06-09T13:21:04.713Z,81.39